Time;durP1;ratioP1;P1;durP2;ratioP2;P2;SDS_P1;SDS_P2;PMS_P1;PMS_P2;Temp;Humidity;BMP_temperature;BMP_pressure;BME280_temperature;BME280_humidity;BME280_pressure;Samples;Min_cycle;Max_cycle;Signal;HPM_P1;HPM_P2
2023/05/23 00:00:59;;;;;;;43.28;31.60;;;;;19.70;98539.00;;;;5052121;28;20123;-65
2023/05/23 00:03:27;;;;;;;43.03;31.77;;;;;19.70;98528.00;;;;5053423;28;20553;-65
2023/05/23 00:05:55;;;;;;;45.60;31.77;;;;;19.60;98535.00;;;;5051666;28;20486;-65
2023/05/23 00:08:22;;;;;;;47.75;30.63;;;;;19.60;98531.00;;;;5053274;28;20106;-65
2023/05/23 00:10:48;;;;;;;43.85;30.33;;;;;19.60;98525.00;;;;5051886;28;20051;-65
2023/05/23 00:13:15;;;;;;;42.75;31.23;;;;;19.50;98520.00;;;;5052090;28;20466;-65
2023/05/23 00:15:42;;;;;;;46.85;32.53;;;;;19.40;98516.00;;;;5053451;28;20061;-64
2023/05/23 00:18:10;;;;;;;48.08;31.48;;;;;19.40;98514.00;;;;5051954;28;20049;-65
2023/05/23 00:20:41;;;;;;;39.60;29.92;;;;;19.50;98522.00;;;;5051483;28;20067;-66
2023/05/23 00:23:09;;;;;;;40.35;29.42;;;;;19.50;98528.00;;;;5052930;28;20047;-65
2023/05/23 00:25:36;;;;;;;42.88;29.63;;;;;19.50;98524.00;;;;5052848;28;20099;-64
2023/05/23 00:28:04;;;;;;;47.50;32.20;;;;;19.50;98522.00;;;;5053777;28;20510;-65
2023/05/23 00:30:32;;;;;;;46.05;30.95;;;;;19.50;98528.00;;;;5055459;28;20120;-66
2023/05/23 00:32:59;;;;;;;41.72;31.05;;;;;19.40;98526.00;;;;5054821;28;20069;-66
2023/05/23 00:35:26;;;;;;;40.95;29.17;;;;;19.40;98519.00;;;;5053628;28;20498;-65
2023/05/23 00:37:54;;;;;;;40.50;29.67;;;;;19.30;98520.00;;;;5053952;28;20113;-66
2023/05/23 00:40:21;;;;;;;41.85;29.80;;;;;19.30;98519.00;;;;5055391;28;20049;-66
2023/05/23 00:42:48;;;;;;;43.55;30.67;;;;;19.30;98519.00;;;;5054643;28;20091;-66
2023/05/23 00:45:15;;;;;;;39.38;29.17;;;;;19.30;98514.00;;;;5051953;28;20573;-66
2023/05/23 00:47:44;;;;;;;48.90;31.45;;;;;19.30;98516.00;;;;5051684;28;20084;-64
2023/05/23 00:50:16;;;;;;;41.55;30.65;;;;;19.30;98511.00;;;;5052529;28;20557;-64
2023/05/23 00:52:44;;;;;;;40.78;29.92;;;;;19.30;98515.00;;;;5052544;28;20118;-64
2023/05/23 00:55:12;;;;;;;39.25;29.35;;;;;19.30;98522.00;;;;5052364;28;20072;-66
2023/05/23 00:57:39;;;;;;;39.25;29.42;;;;;19.20;98528.00;;;;5052811;28;20052;-64
2023/05/23 01:00:08;;;;;;;38.20;30.30;;;;;19.10;98531.00;;;;5051447;28;20049;-64
2023/05/23 01:02:46;;;;;;;41.47;29.42;;;;;19.10;98527.00;;;;5052430;28;20049;-64
2023/05/23 01:05:18;;;;;;;40.35;30.08;;;;;19.10;98530.00;;;;5050984;28;20049;-64
2023/05/23 01:07:47;;;;;;;39.58;28.55;;;;;19.10;98538.00;;;;5051139;28;20136;-64
2023/05/23 01:10:16;;;;;;;40.88;28.92;;;;;19.10;98536.00;;;;5052432;28;20067;-63
2023/05/23 01:12:45;;;;;;;39.97;29.20;;;;;19.00;98534.00;;;;5056898;28;20056;-63
2023/05/23 01:15:16;;;;;;;37.97;28.98;;;;;19.00;98537.00;;;;5069580;28;20072;-63
2023/05/23 01:17:54;;;;;;;40.45;29.58;;;;;19.00;98537.00;;;;5056211;28;20040;-64
2023/05/23 01:20:24;;;;;;;39.53;29.17;;;;;19.00;98539.00;;;;5070100;28;20049;-64
2023/05/23 01:23:00;;;;;;;41.75;31.63;;;;;19.00;98531.00;;;;5070997;28;20063;-64
2023/05/23 01:25:32;;;;;;;42.88;31.70;;;;;19.00;98545.00;;;;5072960;28;20048;-64
2023/05/23 01:28:02;;;;;;;37.70;28.58;;;;;19.10;98535.00;;;;5074186;28;20044;-64
2023/05/23 01:30:31;;;;;;;40.10;30.25;;;;;19.00;98536.00;;;;5073135;28;20067;-64
2023/05/23 01:33:00;;;;;;;41.40;29.88;;;;;19.10;98544.00;;;;5068882;28;20171;-64
2023/05/23 01:35:28;;;;;;;40.97;29.83;;;;;19.10;98541.00;;;;5067708;28;20079;-64
2023/05/23 01:37:55;;;;;;;36.67;29.55;;;;;19.10;98544.00;;;;5072973;28;20073;-64
2023/05/23 01:40:23;;;;;;;40.22;30.17;;;;;19.20;98544.00;;;;5050277;28;20052;-64
2023/05/23 01:42:52;;;;;;;38.05;28.45;;;;;19.20;98548.00;;;;5050397;28;20076;-64
2023/05/23 01:45:20;;;;;;;38.47;27.98;;;;;19.30;98546.00;;;;5050357;28;20049;-65
2023/05/23 01:47:49;;;;;;;35.90;28.70;;;;;19.30;98547.00;;;;5050338;28;20144;-64
2023/05/23 01:50:17;;;;;;;36.47;27.63;;;;;19.30;98547.00;;;;5050078;28;20045;-64
2023/05/23 01:52:45;;;;;;;40.33;28.92;;;;;19.30;98551.00;;;;5050290;28;20056;-66
2023/05/23 01:55:15;;;;;;;35.65;28.85;;;;;19.30;98556.00;;;;5050141;28;20059;-65
2023/05/23 01:57:43;;;;;;;36.97;28.90;;;;;19.30;98548.00;;;;5050328;28;20049;-65
2023/05/23 02:00:11;;;;;;;39.53;30.20;;;;;19.30;98550.00;;;;5050263;28;20041;-65
2023/05/23 02:02:40;;;;;;;40.20;30.05;;;;;19.30;98550.00;;;;5051918;28;20141;-65
2023/05/23 02:05:09;;;;;;;41.08;30.50;;;;;19.30;98547.00;;;;5050070;28;20071;-65
2023/05/23 02:07:36;;;;;;;40.08;29.45;;;;;19.30;98553.00;;;;5049964;28;20051;-65
2023/05/23 02:10:03;;;;;;;40.72;30.13;;;;;19.40;98551.00;;;;5049688;28;20083;-64
2023/05/23 02:12:30;;;;;;;44.33;30.95;;;;;19.40;98551.00;;;;5050057;28;20072;-64
2023/05/23 02:14:57;;;;;;;42.15;31.02;;;;;19.30;98562.00;;;;5050233;28;20413;-65
2023/05/23 02:17:24;;;;;;;39.25;29.33;;;;;19.30;98567.00;;;;5051213;28;20064;-64
2023/05/23 02:19:50;;;;;;;35.70;29.15;;;;;19.20;98559.00;;;;5049680;28;20758;-65
2023/05/23 02:22:22;;;;;;;40.85;30.13;;;;;19.20;98559.00;;;;5050043;28;20147;-65
2023/05/23 02:24:49;;;;;;;38.83;29.20;;;;;19.20;98571.00;;;;5049881;28;20052;-64
2023/05/23 02:27:16;;;;;;;37.90;27.77;;;;;19.30;98567.00;;;;5050022;28;20049;-67
2023/05/23 02:29:42;;;;;;;36.40;28.73;;;;;19.30;98562.00;;;;5049685;28;20064;-64
2023/05/23 02:32:09;;;;;;;35.17;28.55;;;;;19.20;98574.00;;;;5049859;28;20144;-64
2023/05/23 02:34:37;;;;;;;35.47;26.95;;;;;19.20;98568.00;;;;5049783;28;20678;-65
2023/05/23 02:37:04;;;;;;;37.83;27.90;;;;;19.20;98566.00;;;;5049711;28;20061;-64
2023/05/23 02:39:30;;;;;;;33.80;27.52;;;;;19.10;98572.00;;;;5033352;28;20133;-65
2023/05/23 02:41:57;;;;;;;36.45;28.65;;;;;19.10;98573.00;;;;5049838;28;20072;-64
2023/05/23 02:44:24;;;;;;;38.40;29.65;;;;;19.10;98580.00;;;;5051004;28;20041;-64
2023/05/23 02:46:52;;;;;;;34.65;27.63;;;;;19.00;98581.00;;;;5053418;28;20297;-65
2023/05/23 02:49:18;;;;;;;38.05;28.33;;;;;18.90;98585.00;;;;5053298;28;20041;-65
2023/05/23 02:51:45;;;;;;;35.03;27.38;;;;;18.90;98586.00;;;;5053267;28;20048;-64
2023/05/23 02:54:11;;;;;;;35.30;28.50;;;;;18.80;98587.00;;;;5053653;28;20510;-65
2023/05/23 02:56:38;;;;;;;34.58;27.17;;;;;18.80;98586.00;;;;5054796;28;20075;-64
2023/05/23 02:59:05;;;;;;;38.05;28.65;;;;;18.90;98580.00;;;;5054312;28;20144;-64
2023/05/23 03:01:31;;;;;;;35.47;29.27;;;;;18.80;98580.00;;;;5053962;28;20049;-64
2023/05/23 03:03:58;;;;;;;33.25;27.08;;;;;18.90;98575.00;;;;5037883;28;20063;-63
2023/05/23 03:06:26;;;;;;;38.45;29.42;;;;;18.90;98574.00;;;;5055153;28;20516;-63
2023/05/23 03:08:53;;;;;;;36.03;28.65;;;;;18.80;98585.00;;;;5055951;28;20068;-63
2023/05/23 03:11:21;;;;;;;40.35;30.58;;;;;18.80;98585.00;;;;5058959;28;20044;-63
2023/05/23 03:13:48;;;;;;;39.67;29.23;;;;;18.80;98585.00;;;;5060046;28;20072;-64
2023/05/23 03:16:15;;;;;;;33.05;26.60;;;;;18.80;98585.00;;;;5068776;28;20041;-64
2023/05/23 03:18:42;;;;;;;35.55;28.33;;;;;18.80;98595.00;;;;5066207;28;20049;-64
2023/05/23 03:21:08;;;;;;;35.97;27.70;;;;;18.70;98595.00;;;;5054164;28;20124;-64
2023/05/23 03:23:35;;;;;;;38.30;27.98;;;;;18.60;98597.00;;;;5053184;28;20044;-64
2023/05/23 03:26:02;;;;;;;37.72;27.05;;;;;18.50;98585.00;;;;5054285;28;20412;-64
2023/05/23 03:28:32;;;;;;;33.70;26.70;;;;;18.40;98586.00;;;;5053448;28;20524;-63
2023/05/23 03:30:59;;;;;;;35.70;26.48;;;;;18.30;98597.00;;;;5052908;28;20128;-64
2023/05/23 03:33:26;;;;;;;32.22;26.50;;;;;18.30;98589.00;;;;5053292;28;20055;-66
2023/05/23 03:35:53;;;;;;;37.85;27.90;;;;;18.20;98589.00;;;;5052712;28;20148;-64
2023/05/23 03:38:19;;;;;;;34.30;27.30;;;;;18.20;98586.00;;;;5052927;28;20069;-64
2023/05/23 03:40:46;;;;;;;33.53;27.00;;;;;18.20;98597.00;;;;5053764;28;20068;-65
2023/05/23 03:43:13;;;;;;;33.08;27.17;;;;;18.10;98597.00;;;;5052486;28;20045;-64
2023/05/23 03:45:41;;;;;;;32.65;26.10;;;;;18.10;98603.00;;;;5052469;28;20456;-63
2023/05/23 03:48:12;;;;;;;31.63;25.73;;;;;18.10;98603.00;;;;5052600;28;20044;-64
2023/05/23 03:50:40;;;;;;;35.80;24.92;;;;;18.10;98597.00;;;;5052168;28;20049;-64
2023/05/23 03:53:09;;;;;;;29.45;24.92;;;;;18.10;98593.00;;;;5052237;28;20059;-64
2023/05/23 03:55:37;;;;;;;30.67;25.17;;;;;18.10;98596.00;;;;5051836;28;20398;-65
2023/05/23 03:58:05;;;;;;;30.58;24.08;;;;;18.10;98598.00;;;;5052231;28;20049;-65
2023/05/23 04:00:31;;;;;;;33.85;24.50;;;;;18.10;98601.00;;;;5051974;28;20072;-63
2023/05/23 04:03:00;;;;;;;28.33;23.35;;;;;18.10;98595.00;;;;5052047;28;20045;-63
2023/05/23 04:05:28;;;;;;;30.65;24.27;;;;;18.10;98594.00;;;;5051883;28;20045;-63
2023/05/23 04:07:55;;;;;;;32.03;25.08;;;;;18.20;98591.00;;;;5052098;28;20132;-64
2023/05/23 04:10:22;;;;;;;30.20;23.90;;;;;18.20;98590.00;;;;5051720;28;20069;-64
2023/05/23 04:12:50;;;;;;;31.17;24.42;;;;;18.30;98601.00;;;;5051886;28;20127;-64
2023/05/23 04:15:17;;;;;;;31.92;23.45;;;;;18.30;98608.00;;;;5052015;28;20131;-64
2023/05/23 04:17:51;;;;;;;29.08;24.17;;;;;18.30;98598.00;;;;5051871;28;20069;-65
2023/05/23 04:20:18;;;;;;;28.77;23.77;;;;;18.30;98599.00;;;;5051589;28;20076;-65
2023/05/23 04:22:45;;;;;;;27.38;23.17;;;;;18.30;98609.00;;;;5051680;28;20048;-65
2023/05/23 04:25:12;;;;;;;29.35;23.50;;;;;18.40;98604.00;;;;5051429;28;20048;-65
2023/05/23 04:27:47;;;;;;;38.28;27.58;;;;;18.30;98607.00;;;;5051714;28;20037;-65
2023/05/23 04:30:16;;;;;;;30.23;24.77;;;;;18.40;98605.00;;;;5051395;28;20053;-64
2023/05/23 04:32:43;;;;;;;28.20;22.00;;;;;18.50;98610.00;;;;5051702;28;20429;-64
2023/05/23 04:35:11;;;;;;;31.08;22.48;;;;;18.50;98611.00;;;;5051594;28;20045;-64
2023/05/23 04:37:41;;;;;;;28.45;22.60;;;;;18.50;98615.00;;;;5051562;28;20045;-63
2023/05/23 04:40:08;;;;;;;26.27;21.38;;;;;18.50;98623.00;;;;5051496;28;20464;-64
2023/05/23 04:42:56;;;;;;;26.08;21.80;;;;;18.50;98617.00;;;;5051418;28;20056;-64
2023/05/23 04:45:48;;;;;;;23.75;20.65;;;;;18.40;98627.00;;;;5051309;28;20079;-64
2023/05/23 04:48:36;;;;;;;25.38;20.42;;;;;18.30;98631.00;;;;5037125;28;20083;-64
2023/05/23 04:51:07;;;;;;;29.85;21.02;;;;;18.30;98634.00;;;;5052104;28;20128;-63
2023/05/23 04:53:39;;;;;;;25.98;20.40;;;;;18.30;98641.00;;;;5051275;28;20045;-65
2023/05/23 04:56:08;;;;;;;26.98;19.83;;;;;18.30;98638.00;;;;5034815;28;20049;-64
2023/05/23 04:58:39;;;;;;;23.42;19.83;;;;;18.20;98638.00;;;;5050952;28;20131;-64
2023/05/23 05:01:08;;;;;;;26.10;19.40;;;;;18.20;98641.00;;;;5051052;28;20395;-64
2023/05/23 05:03:35;;;;;;;24.05;18.75;;;;;18.20;98637.00;;;;5050929;28;20045;-63
2023/05/23 05:06:02;;;;;;;23.05;18.52;;;;;18.20;98652.00;;;;5050733;28;20076;-64
2023/05/23 05:08:29;;;;;;;24.00;19.83;;;;;18.30;98644.00;;;;5051735;28;20047;-64
2023/05/23 05:10:55;;;;;;;21.42;16.20;;;;;18.30;98654.00;;;;5035472;28;20646;-64
2023/05/23 05:13:23;;;;;;;24.13;17.13;;;;;18.30;98655.00;;;;5052858;28;20550;-64
2023/05/23 05:15:53;;;;;;;23.00;17.17;;;;;18.30;98657.00;;;;5052933;28;20040;-65
2023/05/23 05:18:21;;;;;;;19.85;15.90;;;;;18.10;98664.00;;;;5052960;28;20041;-65
2023/05/23 05:20:48;;;;;;;19.13;15.30;;;;;18.10;98663.00;;;;5052672;28;20041;-65
2023/05/23 05:23:15;;;;;;;21.13;16.13;;;;;18.10;98662.00;;;;5053028;28;20075;-64
2023/05/23 05:25:41;;;;;;;21.45;15.07;;;;;18.10;98662.00;;;;5052659;28;20041;-64
2023/05/23 05:28:08;;;;;;;20.10;15.13;;;;;18.20;98665.00;;;;5052306;28;20048;-64
2023/05/23 05:30:40;;;;;;;18.83;14.20;;;;;18.20;98673.00;;;;5051651;28;20132;-63
2023/05/23 05:33:09;;;;;;;19.80;14.02;;;;;18.20;98671.00;;;;5050759;28;20131;-64
2023/05/23 05:35:37;;;;;;;18.27;14.25;;;;;18.30;98667.00;;;;5051019;28;20099;-63
2023/05/23 05:38:04;;;;;;;17.13;12.38;;;;;18.30;98678.00;;;;5050704;28;20140;-63
2023/05/23 05:40:31;;;;;;;15.95;12.75;;;;;18.30;98675.00;;;;5051225;28;20080;-63
2023/05/23 05:42:59;;;;;;;16.73;13.15;;;;;18.40;98667.00;;;;5050847;28;20076;-63
2023/05/23 05:45:25;;;;;;;15.98;12.75;;;;;18.50;98673.00;;;;5051139;28;20532;-63
2023/05/23 05:47:53;;;;;;;15.80;13.07;;;;;18.60;98674.00;;;;5051554;28;20037;-64
2023/05/23 05:50:22;;;;;;;16.35;12.45;;;;;18.60;98674.00;;;;5050207;28;20095;-64
2023/05/23 05:52:48;;;;;;;17.20;12.68;;;;;18.70;98681.00;;;;5050401;28;20053;-63
2023/05/23 05:55:15;;;;;;;17.20;13.38;;;;;18.80;98687.00;;;;5050461;28;20083;-64
2023/05/23 05:57:45;;;;;;;15.32;12.23;;;;;18.70;98692.00;;;;5050279;28;20041;-64
2023/05/23 06:00:14;;;;;;;16.30;12.93;;;;;18.60;98681.00;;;;5049994;28;20045;-64
2023/05/23 06:02:56;;;;;;;14.32;12.13;;;;;18.60;98693.00;;;;5050142;28;20430;-64
2023/05/23 06:05:36;;;;;;;14.20;11.55;;;;;18.40;98693.00;;;;5049932;28;20045;-64
2023/05/23 06:08:06;;;;;;;16.58;11.50;;;;;18.40;98685.00;;;;5051409;28;20033;-64
2023/05/23 06:10:33;;;;;;;15.80;11.10;;;;;18.50;98693.00;;;;5050040;28;20143;-64
2023/05/23 06:13:00;;;;;;;12.18;10.73;;;;;18.70;98689.00;;;;5050021;28;20053;-64
2023/05/23 06:15:27;;;;;;;15.00;10.73;;;;;18.70;98686.00;;;;5049973;28;20075;-64
2023/05/23 06:17:53;;;;;;;13.30;10.70;;;;;18.50;98693.00;;;;5050585;28;20144;-64
2023/05/23 06:20:20;;;;;;;14.95;11.18;;;;;18.50;98686.00;;;;5053878;28;20052;-64
2023/05/23 06:22:48;;;;;;;14.60;10.88;;;;;18.50;98692.00;;;;5053898;28;20583;-64
2023/05/23 06:25:15;;;;;;;12.20;9.90;;;;;18.30;98709.00;;;;5053754;28;20056;-63
2023/05/23 06:27:43;;;;;;;13.18;10.90;;;;;18.30;98708.00;;;;5053854;28;20494;-64
2023/05/23 06:30:10;;;;;;;12.48;9.38;;;;;18.50;98705.00;;;;5053526;28;20049;-64
2023/05/23 06:32:37;;;;;;;13.18;9.90;;;;;18.40;98697.00;;;;5053924;28;20049;-64
2023/05/23 06:35:04;;;;;;;14.07;10.55;;;;;18.20;98708.00;;;;5053644;28;20148;-64
2023/05/23 06:37:33;;;;;;;12.27;9.40;;;;;18.30;98716.00;;;;5053661;28;20098;-64
2023/05/23 06:40:00;;;;;;;14.18;9.05;;;;;18.30;98714.00;;;;5053598;28;20052;-64
2023/05/23 06:42:26;;;;;;;12.05;8.77;;;;;18.30;98729.00;;;;5053682;28;20138;-65
2023/05/23 06:45:02;;;;;;;11.43;9.18;;;;;18.30;98727.00;;;;5053534;28;20513;-65
2023/05/23 06:47:30;;;;;;;10.18;8.65;;;;;18.20;98729.00;;;;5053562;28;20049;-65
2023/05/23 06:49:57;;;;;;;14.35;8.45;;;;;18.30;98727.00;;;;5053488;28;20052;-65
2023/05/23 06:52:24;;;;;;;8.60;7.65;;;;;18.40;98737.00;;;;5053773;28;20534;-65
2023/05/23 06:54:51;;;;;;;8.13;7.28;;;;;18.50;98737.00;;;;5053335;28;20457;-63
2023/05/23 06:57:18;;;;;;;8.85;7.05;;;;;18.50;98735.00;;;;5053329;28;20083;-63
2023/05/23 06:59:47;;;;;;;7.90;6.75;;;;;18.40;98742.00;;;;5054503;28;20045;-63
2023/05/23 07:02:14;;;;;;;8.98;6.60;;;;;18.30;98749.00;;;;5053392;28;20094;-64
2023/05/23 07:04:41;;;;;;;10.10;6.97;;;;;18.20;98757.00;;;;5053356;28;20052;-64
2023/05/23 07:07:15;;;;;;;;;;;;;18.00;98752.00;;;;5053820;28;20064;-64
2023/05/23 07:09:43;;;;;;;7.85;6.65;;;;;17.80;98749.00;;;;5053085;28;19959;-65
2023/05/23 07:12:15;;;;;;;8.73;6.53;;;;;17.70;98750.00;;;;5053390;28;20041;-65
2023/05/23 07:14:43;;;;;;;9.35;6.13;;;;;17.70;98748.00;;;;5052929;28;20497;-64
2023/05/23 07:17:10;;;;;;;6.63;5.70;;;;;17.90;98761.00;;;;5054339;28;20056;-64
2023/05/23 07:19:37;;;;;;;8.13;5.28;;;;;18.00;98758.00;;;;5054672;28;20068;-64
2023/05/23 07:22:04;;;;;;;7.20;5.05;;;;;18.00;98764.00;;;;5064067;28;20052;-64
2023/05/23 07:24:33;;;;;;;5.78;4.10;;;;;18.00;98761.00;;;;5063241;28;20049;-64
2023/05/23 07:27:00;;;;;;;5.80;4.90;;;;;17.90;98769.00;;;;5053334;28;20048;-63
2023/05/23 07:29:28;;;;;;;6.57;4.72;;;;;18.00;98762.00;;;;5051892;28;20616;-63
2023/05/23 07:31:55;;;;;;;4.65;4.25;;;;;17.90;98765.00;;;;5053345;28;20422;-63
2023/05/23 07:34:22;;;;;;;6.97;4.55;;;;;17.80;98767.00;;;;5053008;28;20132;-63
2023/05/23 07:36:53;;;;;;;5.18;4.07;;;;;17.80;98767.00;;;;5053045;28;20044;-64
2023/05/23 07:39:23;;;;;;;5.65;4.80;;;;;17.90;98766.00;;;;5053762;28;20051;-64
2023/05/23 07:41:50;;;;;;;4.85;4.32;;;;;18.00;98763.00;;;;5054522;28;20077;-64
2023/05/23 07:44:18;;;;;;;6.95;4.40;;;;;18.10;98767.00;;;;5037884;28;20559;-64
2023/05/23 07:46:49;;;;;;;5.15;4.50;;;;;18.30;98775.00;;;;5054599;28;20049;-64
2023/05/23 07:49:16;;;;;;;4.30;3.90;;;;;18.50;98767.00;;;;5054374;28;20075;-64
2023/05/23 07:51:42;;;;;;;5.13;4.05;;;;;18.50;98771.00;;;;5054558;28;20127;-65
2023/05/23 07:54:09;;;;;;;4.70;4.30;;;;;18.60;98776.00;;;;5054113;28;20263;-64
2023/05/23 07:56:38;;;;;;;4.18;3.78;;;;;18.60;98775.00;;;;5038129;28;20056;-64
2023/05/23 07:59:07;;;;;;;4.43;3.78;;;;;18.70;98771.00;;;;5054109;28;20449;-64
2023/05/23 08:01:34;;;;;;;4.90;4.40;;;;;18.80;98776.00;;;;5053997;28;20055;-64
2023/05/23 08:04:05;;;;;;;4.85;4.00;;;;;19.00;98781.00;;;;5054405;28;20053;-64
2023/05/23 08:06:47;;;;;;;5.03;4.10;;;;;19.10;98776.00;;;;5054459;28;20505;-62
2023/05/23 08:09:39;;;;;;;4.15;3.67;;;;;19.00;98788.00;;;;5053780;28;20460;-64
2023/05/23 08:12:08;;;;;;;5.55;4.07;;;;;18.90;98782.00;;;;5054185;28;20088;-64
2023/05/23 08:14:36;;;;;;;5.05;3.65;;;;;18.80;98785.00;;;;5054064;28;20068;-64
2023/05/23 08:17:22;;;;;;;5.05;4.18;;;;;18.80;98792.00;;;;5055264;28;20043;-64
2023/05/23 08:19:49;;;;;;;5.25;4.40;;;;;18.60;98782.00;;;;5053969;28;20099;-64
2023/05/23 08:22:16;;;;;;;5.38;4.30;;;;;18.50;98783.00;;;;5053404;28;20140;-64
2023/05/23 08:24:43;;;;;;;5.93;4.55;;;;;18.40;98781.00;;;;5054204;28;20047;-63
2023/05/23 08:27:10;;;;;;;5.35;4.40;;;;;18.50;98787.00;;;;5053516;28;20414;-62
2023/05/23 08:29:37;;;;;;;6.05;5.00;;;;;18.50;98791.00;;;;5053457;28;20057;-62
2023/05/23 08:32:05;;;;;;;5.32;4.82;;;;;18.50;98785.00;;;;5053646;28;20045;-63
2023/05/23 08:34:32;;;;;;;5.45;4.93;;;;;18.40;98784.00;;;;5052210;28;20539;-64
2023/05/23 08:36:59;;;;;;;5.80;4.70;;;;;18.50;98793.00;;;;5051770;28;20045;-64
2023/05/23 08:39:26;;;;;;;6.18;4.97;;;;;18.60;98798.00;;;;5051471;28;20564;-64
2023/05/23 08:42:07;;;;;;;6.70;4.95;;;;;18.70;98797.00;;;;5051477;28;20052;-63
2023/05/23 08:44:34;;;;;;;7.65;6.25;;;;;18.90;98793.00;;;;5051706;28;20140;-66
2023/05/23 08:47:04;;;;;;;5.57;5.07;;;;;19.20;98786.00;;;;5051689;28;20410;-65
2023/05/23 08:49:54;;;;;;;5.32;4.63;;;;;19.50;98782.00;;;;5052373;28;20057;-65
2023/05/23 08:52:24;;;;;;;5.85;5.25;;;;;19.70;98791.00;;;;5052695;28;20059;-64
2023/05/23 08:54:53;;;;;;;7.30;5.45;;;;;19.80;98787.00;;;;5051334;28;20052;-64
2023/05/23 08:57:20;;;;;;;6.00;4.90;;;;;19.90;98795.00;;;;5051083;28;20048;-64
2023/05/23 08:59:52;;;;;;;5.60;4.93;;;;;20.00;98792.00;;;;5050990;28;20056;-64
2023/05/23 09:02:21;;;;;;;5.85;5.07;;;;;20.10;98786.00;;;;5051443;28;20136;-64
2023/05/23 09:04:50;;;;;;;6.80;5.05;;;;;20.30;98795.00;;;;5051114;28;20064;-64
2023/05/23 09:07:21;;;;;;;5.25;4.75;;;;;20.50;98786.00;;;;5051214;28;20136;-65
2023/05/23 09:09:50;;;;;;;5.72;5.13;;;;;20.50;98791.00;;;;5050858;28;20051;-64
2023/05/23 09:12:17;;;;;;;5.13;4.63;;;;;20.50;98786.00;;;;5051199;28;20056;-64
2023/05/23 09:14:45;;;;;;;5.20;4.70;;;;;20.50;98804.00;;;;5050961;28;20051;-64
2023/05/23 09:17:19;;;;;;;4.57;4.18;;;;;20.50;98802.00;;;;5050882;28;20052;-64
2023/05/23 09:19:46;;;;;;;4.82;4.30;;;;;20.30;98808.00;;;;5050932;28;20053;-64
2023/05/23 09:22:27;;;;;;;5.13;4.53;;;;;20.30;98802.00;;;;5036091;28;20052;-64
2023/05/23 09:25:06;;;;;;;5.88;4.15;;;;;20.40;98804.00;;;;5051259;28;20045;-63
2023/05/23 09:27:33;;;;;;;5.07;4.07;;;;;20.60;98800.00;;;;5051073;28;20115;-64
2023/05/23 09:30:08;;;;;;;4.65;4.00;;;;;20.50;98802.00;;;;5050311;28;20045;-64
2023/05/23 09:32:36;;;;;;;4.53;4.07;;;;;20.60;98806.00;;;;5050914;28;20418;-64
2023/05/23 09:35:05;;;;;;;4.60;4.20;;;;;20.60;98810.00;;;;5050544;28;20049;-65
2023/05/23 09:37:36;;;;;;;4.70;4.28;;;;;20.60;98819.00;;;;5050556;28;20067;-64
2023/05/23 09:40:11;;;;;;;6.20;4.20;;;;;20.50;98821.00;;;;5050612;28;20140;-64
2023/05/23 09:42:44;;;;;;;4.90;4.50;;;;;20.40;98822.00;;;;5050643;28;20517;-64
2023/05/23 09:45:15;;;;;;;4.57;4.18;;;;;20.40;98822.00;;;;5050503;28;20053;-64
2023/05/23 09:47:50;;;;;;;4.07;3.70;;;;;20.30;98820.00;;;;5050653;28;20123;-64
2023/05/23 09:50:18;;;;;;;7.10;3.75;;;;;20.00;98819.00;;;;5050204;28;20045;-64
2023/05/23 09:52:45;;;;;;;3.92;3.53;;;;;20.00;98819.00;;;;5051907;28;20051;-64
2023/05/23 09:55:13;;;;;;;4.47;4.07;;;;;20.00;98817.00;;;;5056893;28;20041;-64
2023/05/23 09:57:42;;;;;;;3.83;3.53;;;;;20.00;98815.00;;;;5057673;28;20107;-64
2023/05/23 10:00:11;;;;;;;4.35;3.60;;;;;20.10;98811.00;;;;5058905;28;20056;-64
2023/05/23 10:02:53;;;;;;;3.65;3.35;;;;;20.10;98813.00;;;;5060103;28;20144;-64
2023/05/23 10:05:44;;;;;;;5.20;4.40;;;;;20.20;98819.00;;;;5060294;28;20490;-64
2023/05/23 10:08:25;;;;;;;3.90;3.53;;;;;20.20;98814.00;;;;5058654;28;20486;-64
2023/05/23 10:10:55;;;;;;;3.78;3.30;;;;;20.00;98827.00;;;;5060692;28;20045;-65
2023/05/23 10:13:26;;;;;;;3.60;3.30;;;;;20.00;98828.00;;;;5058747;28;20040;-64
2023/05/23 10:16:22;;;;;;;3.83;3.40;;;;;20.10;98826.00;;;;5058438;28;20051;-63
2023/05/23 10:18:56;;;;;;;4.00;3.45;;;;;20.10;98826.00;;;;5056918;28;20113;-63
2023/05/23 10:21:37;;;;;;;3.67;3.38;;;;;20.20;98825.00;;;;5058187;28;20049;-63
2023/05/23 10:24:04;;;;;;;3.67;3.38;;;;;20.20;98821.00;;;;5058140;28;20060;-63
2023/05/23 10:26:31;;;;;;;4.55;4.10;;;;;20.30;98818.00;;;;5058255;28;20041;-63
2023/05/23 10:28:59;;;;;;;5.65;3.67;;;;;20.30;98829.00;;;;5056713;28;20056;-62
2023/05/23 10:31:27;;;;;;;3.90;3.60;;;;;20.20;98838.00;;;;5058020;28;20073;-62
2023/05/23 10:34:01;;;;;;;4.80;4.18;;;;;20.20;98839.00;;;;5057907;28;20079;-62
2023/05/23 10:36:39;;;;;;;4.00;3.70;;;;;20.30;98833.00;;;;5058054;28;20522;-63
2023/05/23 10:39:32;;;;;;;4.80;4.30;;;;;20.30;98835.00;;;;5056671;28;20133;-63
2023/05/23 10:42:12;;;;;;;5.47;4.38;;;;;20.20;98836.00;;;;5056753;28;20077;-63
2023/05/23 10:44:38;;;;;;;4.72;4.20;;;;;20.30;98844.00;;;;5058139;28;20103;-63
2023/05/23 10:47:06;;;;;;;5.07;4.35;;;;;20.20;98841.00;;;;5059028;28;20076;-63
2023/05/23 10:49:43;;;;;;;4.90;4.40;;;;;20.10;98848.00;;;;5057537;28;20127;-63
2023/05/23 10:52:15;;;;;;;5.18;4.68;;;;;19.90;98844.00;;;;5056489;28;20068;-63
2023/05/23 10:54:48;;;;;;;7.82;5.85;;;;;19.90;98841.00;;;;5057196;28;20057;-64
2023/05/23 10:57:18;;;;;;;5.05;4.57;;;;;19.90;98848.00;;;;5058235;28;20128;-63
2023/05/23 10:59:45;;;;;;;6.65;5.85;;;;;19.80;98853.00;;;;5056370;28;20041;-63
2023/05/23 11:02:15;;;;;;;5.93;5.30;;;;;19.70;98846.00;;;;5057508;28;20122;-64
2023/05/23 11:04:42;;;;;;;6.35;5.10;;;;;19.90;98840.00;;;;5054310;28;20053;-63
2023/05/23 11:07:31;;;;;;;5.88;5.28;;;;;20.20;98839.00;;;;5054883;28;20049;-63
2023/05/23 11:10:11;;;;;;;7.65;5.68;;;;;20.50;98843.00;;;;5054788;28;20055;-63
2023/05/23 11:12:39;;;;;;;6.05;5.40;;;;;20.80;98843.00;;;;5053578;28;20053;-64
2023/05/23 11:15:15;;;;;;;6.53;5.15;;;;;21.00;98841.00;;;;5054431;28;20048;-63
2023/05/23 11:17:54;;;;;;;6.15;5.22;;;;;21.20;98856.00;;;;5054113;28;20144;-63
2023/05/23 11:20:25;;;;;;;7.70;5.32;;;;;21.20;98842.00;;;;5055638;28;20049;-64
2023/05/23 11:22:57;;;;;;;6.90;5.35;;;;;21.20;98846.00;;;;5058238;28;20045;-63
2023/05/23 11:25:43;;;;;;;6.65;5.60;;;;;21.20;98844.00;;;;5059275;28;20041;-63
2023/05/23 11:28:12;;;;;;;6.07;5.32;;;;;21.20;98855.00;;;;5058797;28;20491;-63
2023/05/23 11:30:40;;;;;;;7.20;5.05;;;;;21.20;98851.00;;;;5056583;28;20077;-64
2023/05/23 11:33:15;;;;;;;5.63;5.13;;;;;21.20;98852.00;;;;5054177;28;20049;-63
2023/05/23 11:35:44;;;;;;;6.50;4.97;;;;;21.10;98859.00;;;;5036828;28;20095;-64
2023/05/23 11:38:11;;;;;;;6.40;5.35;;;;;21.10;98849.00;;;;5054252;28;20051;-64
2023/05/23 11:40:39;;;;;;;5.55;5.05;;;;;21.20;98847.00;;;;5053800;28;20045;-64
2023/05/23 11:43:08;;;;;;;5.43;4.88;;;;;21.20;98852.00;;;;5054030;28;20040;-64
2023/05/23 11:45:36;;;;;;;6.20;5.35;;;;;21.00;98848.00;;;;5053937;28;20158;-63
2023/05/23 11:48:12;;;;;;;7.20;5.07;;;;;20.90;98847.00;;;;5053967;28;20095;-63
2023/05/23 11:50:57;;;;;;;6.38;5.78;;;;;20.80;98843.00;;;;5052468;28;20052;-63
2023/05/23 11:53:26;;;;;;;5.95;5.35;;;;;20.70;98844.00;;;;5053768;28;20041;-64
2023/05/23 11:55:56;;;;;;;6.15;5.60;;;;;20.80;98847.00;;;;5053873;28;20047;-64
2023/05/23 11:58:29;;;;;;;6.43;5.40;;;;;20.90;98841.00;;;;5054079;28;20060;-64
2023/05/23 12:01:03;;;;;;;8.07;6.93;;;;;21.00;98844.00;;;;5052437;28;20055;-64
2023/05/23 12:03:30;;;;;;;7.10;6.03;;;;;21.10;98837.00;;;;5053059;28;20455;-66
2023/05/23 12:05:58;;;;;;;6.32;5.72;;;;;21.10;98838.00;;;;5054190;28;20049;-63
2023/05/23 12:08:24;;;;;;;7.85;5.90;;;;;21.20;98842.00;;;;5052458;28;20116;-63
2023/05/23 12:10:52;;;;;;;7.70;5.55;;;;;21.20;98835.00;;;;5053449;28;20227;-63
2023/05/23 12:13:23;;;;;;;7.43;6.68;;;;;21.40;98838.00;;;;5052409;28;20048;-63
2023/05/23 12:15:53;;;;;;;9.32;5.75;;;;;21.50;98839.00;;;;5053029;28;20049;-63
2023/05/23 12:18:20;;;;;;;6.38;5.75;;;;;21.50;98840.00;;;;5053170;28;20037;-64
2023/05/23 12:20:49;;;;;;;7.00;6.30;;;;;21.50;98841.00;;;;5052041;28;20063;-64